sensor_id;sensor_type;location;lat;lon;timestamp;pressure;altitude;pressure_sealevel;temperature;humidity
62354;BME280;48391;49.184;2.418;2022-11-21T09:27:30;99873.50;;;8.74;100.00
62354;BME280;48391;49.184;2.418;2022-11-21T09:29:56;99873.50;;;8.74;100.00
62354;BME280;48391;49.184;2.418;2022-11-21T09:32:23;99882.72;;;11.65;100.00
62354;BME280;48391;49.184;2.418;2022-11-21T09:34:49;99855.19;;;11.96;100.00
62354;BME280;48391;49.184;2.418;2022-11-21T09:37:15;99809.22;;;12.17;100.00
62354;BME280;48391;49.184;2.418;2022-11-21T09:39:41;99798.06;;;12.14;100.00
62354;BME280;48391;49.184;2.418;2022-11-21T09:45:05;99787.28;;;12.30;100.00
62354;BME280;48391;49.184;2.418;2022-11-21T09:47:41;99783.78;;;12.60;100.00
62354;BME280;48391;49.184;2.418;2022-11-21T09:57:52;99750.56;;;11.46;nan
62354;BME280;48391;49.184;2.418;2022-11-21T10:02:35;99743.84;;;12.36;100.00
62354;BME280;48391;49.184;2.418;2022-11-21T10:05:02;99728.81;;;11.81;100.00
62354;BME280;48391;49.184;2.418;2022-11-21T10:07:31;99715.00;;;12.09;100.00
62354;BME280;48391;49.184;2.418;2022-11-21T10:16:35;99717.19;;;12.28;100.00
62354;BME280;48391;49.184;2.418;2022-11-21T10:18:49;99700.88;;;11.92;100.00
62354;BME280;48391;49.184;2.418;2022-11-21T10:21:34;99688.31;;;12.31;100.00
62354;BME280;48391;49.184;2.418;2022-11-21T10:29:19;99667.75;;;12.77;100.00
62354;BME280;48391;49.184;2.418;2022-11-21T10:31:47;99666.22;;;12.60;100.00
62354;BME280;48391;49.184;2.418;2022-11-21T10:34:25;99661.31;;;12.26;100.00
62354;BME280;48391;49.184;2.418;2022-11-21T10:37:06;99654.34;;;12.62;100.00
62354;BME280;48391;49.184;2.418;2022-11-21T10:39:45;99633.59;;;12.27;100.00
62354;BME280;48391;49.184;2.418;2022-11-21T10:42:39;99627.22;;;12.14;100.00
62354;BME280;48391;49.184;2.418;2022-11-21T10:45:12;99617.19;;;12.53;100.00
62354;BME280;48391;49.184;2.418;2022-11-21T10:47:42;61489.81;;;-142.61;100.00
62354;BME280;48391;49.184;2.418;2022-11-21T10:53:32;61489.81;;;-142.61;100.00
62354;BME280;48391;49.184;2.418;2022-11-21T10:56:17;61489.81;;;-142.61;100.00
62354;BME280;48391;49.184;2.418;2022-11-21T10:58:48;61489.81;;;-142.61;100.00
62354;BME280;48391;49.184;2.418;2022-11-21T11:01:26;61489.81;;;-142.61;100.00
62354;BME280;48391;49.184;2.418;2022-11-21T11:04:17;61489.81;;;-142.61;100.00
62354;BME280;48391;49.184;2.418;2022-11-21T11:06:45;61489.81;;;-142.61;100.00
62354;BME280;48391;49.184;2.418;2022-11-21T11:09:26;61489.81;;;-142.61;100.00
62354;BME280;48391;49.184;2.418;2022-11-21T11:12:15;61489.81;;;-142.61;100.00
62354;BME280;48391;49.184;2.418;2022-11-21T11:14:56;61489.81;;;-142.61;100.00
62354;BME280;48391;49.184;2.418;2022-11-21T11:17:33;61489.81;;;-142.61;100.00
62354;BME280;48391;49.184;2.418;2022-11-21T11:20:05;61489.81;;;-142.61;100.00
62354;BME280;48391;49.184;2.418;2022-11-21T11:22:32;61489.81;;;-142.61;100.00
62354;BME280;48391;49.184;2.418;2022-11-21T11:24:58;61489.81;;;-142.61;100.00
62354;BME280;48391;49.184;2.418;2022-11-21T11:27:28;61489.81;;;-142.61;100.00
62354;BME280;48391;49.184;2.418;2022-11-21T11:29:54;61489.81;;;-142.61;100.00
62354;BME280;48391;49.184;2.418;2022-11-21T11:32:21;61489.81;;;-142.61;100.00
62354;BME280;48391;49.184;2.418;2022-11-21T11:52:01;99448.03;;;13.32;nan
62354;BME280;48391;49.184;2.418;2022-11-21T11:56:45;99411.78;;;12.43;100.00
62354;BME280;48391;49.184;2.418;2022-11-21T11:59:21;99409.19;;;12.64;100.00
62354;BME280;48391;49.184;2.418;2022-11-21T12:02:10;99399.06;;;12.16;40.69
62354;BME280;48391;49.184;2.418;2022-11-21T12:04:45;99399.06;;;12.16;100.00
62354;BME280;48391;49.184;2.418;2022-11-21T12:07:36;99383.97;;;12.38;100.00
62354;BME280;48391;49.184;2.418;2022-11-21T12:10:12;99383.97;;;12.38;100.00
62354;BME280;48391;49.184;2.418;2022-11-21T12:12:43;99351.66;;;12.47;100.00
62354;BME280;48391;49.184;2.418;2022-11-21T12:23:18;99292.56;;;12.21;100.00
62354;BME280;48391;49.184;2.418;2022-11-21T12:29:57;99274.31;;;12.25;100.00
62354;BME280;48391;49.184;2.418;2022-11-21T12:32:29;99248.25;;;12.62;100.00
62354;BME280;48391;49.184;2.418;2022-11-21T12:38:14;99240.88;;;11.78;100.00
62354;BME280;48391;49.184;2.418;2022-11-21T12:41:10;99223.47;;;12.33;100.00
62354;BME280;48391;49.184;2.418;2022-11-21T12:47:18;99203.94;;;12.11;100.00
62354;BME280;48391;49.184;2.418;2022-11-21T12:50:17;99208.03;;;11.92;100.00
62354;BME280;48391;49.184;2.418;2022-11-21T12:53:12;99190.72;;;12.24;100.00
62354;BME280;48391;49.184;2.418;2022-11-21T12:56:13;99189.66;;;12.61;100.00
62354;BME280;48391;49.184;2.418;2022-11-21T12:58:46;99197.16;;;11.94;100.00
62354;BME280;48391;49.184;2.418;2022-11-21T13:03:59;99173.94;;;12.09;100.00
62354;BME280;48391;49.184;2.418;2022-11-21T13:06:29;99173.19;;;12.36;100.00
62354;BME280;48391;49.184;2.418;2022-11-21T13:08:58;33474.41;;;12.51;100.00
62354;BME280;48391;49.184;2.418;2022-11-21T13:11:43;99163.28;;;12.51;100.00
62354;BME280;48391;49.184;2.418;2022-11-21T13:28:21;99071.44;;;11.68;100.00
62354;BME280;48391;49.184;2.418;2022-11-21T13:30:54;99054.50;;;11.96;100.00
62354;BME280;48391;49.184;2.418;2022-11-21T13:36:09;99033.41;;;12.23;100.00
62354;BME280;48391;49.184;2.418;2022-11-21T13:44:39;99016.59;;;12.01;100.00
62354;BME280;48391;49.184;2.418;2022-11-21T13:52:43;98989.34;;;12.06;100.00
62354;BME280;48391;49.184;2.418;2022-11-21T14:06:43;98962.66;;;11.63;100.00
62354;BME280;48391;49.184;2.418;2022-11-21T14:12:05;98938.13;;;11.53;100.00
62354;BME280;48391;49.184;2.418;2022-11-21T14:19:54;98919.81;;;11.08;100.00
62354;BME280;48391;49.184;2.418;2022-11-21T14:22:36;98908.66;;;11.82;100.00
62354;BME280;48391;49.184;2.418;2022-11-21T14:25:07;98900.91;;;11.87;100.00
62354;BME280;48391;49.184;2.418;2022-11-21T14:27:37;61489.81;;;-142.61;100.00
62354;BME280;48391;49.184;2.418;2022-11-21T14:30:04;61489.81;;;-142.61;100.00
62354;BME280;48391;49.184;2.418;2022-11-21T14:32:31;61489.81;;;-142.61;100.00
62354;BME280;48391;49.184;2.418;2022-11-21T14:35:08;61489.81;;;-142.61;100.00
62354;BME280;48391;49.184;2.418;2022-11-21T14:37:38;61489.81;;;-142.61;100.00
62354;BME280;48391;49.184;2.418;2022-11-21T14:40:04;61489.81;;;-142.61;100.00
62354;BME280;48391;49.184;2.418;2022-11-21T14:42:36;61489.81;;;-142.61;100.00
62354;BME280;48391;49.184;2.418;2022-11-21T14:45:29;61489.81;;;-142.61;100.00
62354;BME280;48391;49.184;2.418;2022-11-21T14:47:55;61489.81;;;-142.61;100.00
62354;BME280;48391;49.184;2.418;2022-11-21T14:50:29;61489.81;;;-142.61;100.00
62354;BME280;48391;49.184;2.418;2022-11-21T14:53:00;61489.81;;;-142.61;100.00
62354;BME280;48391;49.184;2.418;2022-11-21T14:55:29;61489.81;;;-142.61;100.00
62354;BME280;48391;49.184;2.418;2022-11-21T14:57:57;61489.81;;;-142.61;100.00
62354;BME280;48391;49.184;2.418;2022-11-21T15:00:26;61489.81;;;-142.61;100.00
62354;BME280;48391;49.184;2.418;2022-11-21T15:02:54;61489.81;;;-142.61;100.00
62354;BME280;48391;49.184;2.418;2022-11-21T15:05:26;61489.81;;;-142.61;100.00
62354;BME280;48391;49.184;2.418;2022-11-21T15:07:53;61489.81;;;-142.61;100.00
62354;BME280;48391;49.184;2.418;2022-11-21T15:10:22;61489.81;;;-142.61;100.00
62354;BME280;48391;49.184;2.418;2022-11-21T15:13:01;61489.81;;;-142.61;100.00
62354;BME280;48391;49.184;2.418;2022-11-21T15:18:02;61489.81;;;-142.61;100.00
62354;BME280;48391;49.184;2.418;2022-11-21T15:20:30;61489.81;;;-142.61;100.00
62354;BME280;48391;49.184;2.418;2022-11-21T15:22:58;61489.81;;;-142.61;100.00
62354;BME280;48391;49.184;2.418;2022-11-21T15:25:30;61489.81;;;-142.61;100.00
62354;BME280;48391;49.184;2.418;2022-11-21T15:30:26;61489.81;;;-142.61;100.00
62354;BME280;48391;49.184;2.418;2022-11-21T15:33:02;61489.81;;;-142.61;100.00
62354;BME280;48391;49.184;2.418;2022-11-21T15:35:46;61489.81;;;-142.61;100.00
62354;BME280;48391;49.184;2.418;2022-11-21T15:38:19;61489.81;;;-142.61;100.00
